Time;durP1;ratioP1;P1;durP2;ratioP2;P2;SDS_P1;SDS_P2;PMS_P1;PMS_P2;Temp;Humidity;BMP_temperature;BMP_pressure;BME280_temperature;BME280_humidity;BME280_pressure;Samples;Min_cycle;Max_cycle;Signal;HPM_P1;HPM_P2
2023/11/12 00:00:47;;;;;;;16.30;8.45;;;4.20;99.90;;;;;;5063010;28;20238;-71
2023/11/12 00:03:14;;;;;;;17.48;9.52;;;4.20;99.90;;;;;;5053944;28;20056;-71
2023/11/12 00:05:41;;;;;;;17.17;8.68;;;4.20;99.90;;;;;;5062168;28;20044;-71
2023/11/12 00:08:08;;;;;;;19.50;9.05;;;4.20;99.90;;;;;;5041726;28;20127;-71
2023/11/12 00:10:35;;;;;;;13.82;8.57;;;4.20;99.90;;;;;;5063696;28;20045;-71
2023/11/12 00:13:02;;;;;;;13.88;8.32;;;4.20;99.90;;;;;;5068842;28;20478;-71
2023/11/12 00:15:28;;;;;;;15.07;7.35;;;4.20;99.90;;;;;;5067792;28;20498;-70
2023/11/12 00:17:55;;;;;;;17.25;8.48;;;4.20;99.90;;;;;;5069138;28;20109;-71
2023/11/12 00:20:24;;;;;;;12.93;6.88;;;4.20;99.90;;;;;;5068502;28;20128;-71
2023/11/12 00:22:52;;;;;;;13.23;6.30;;;4.30;99.90;;;;;;5069076;28;20715;-71
2023/11/12 00:25:19;;;;;;;12.75;6.30;;;4.30;99.90;;;;;;5067468;28;20041;-71
2023/11/12 00:27:46;;;;;;;22.17;6.40;;;4.30;99.90;;;;;;5066158;28;20091;-71
2023/11/12 00:30:13;;;;;;;12.50;6.88;;;4.40;99.90;;;;;;5067000;28;20056;-71
2023/11/12 00:32:41;;;;;;;14.55;7.05;;;4.40;99.90;;;;;;5067396;28;20056;-69
2023/11/12 00:35:08;;;;;;;16.25;6.75;;;4.40;99.90;;;;;;5066681;28;20151;-70
2023/11/12 00:37:36;;;;;;;14.40;6.68;;;4.40;99.90;;;;;;5067100;28;20044;-71
2023/11/12 00:40:05;;;;;;;11.63;6.07;;;4.20;99.90;;;;;;5067648;28;20819;-71
2023/11/12 00:42:32;;;;;;;15.07;6.35;;;4.40;99.90;;;;;;5068482;28;20499;-70
2023/11/12 00:44:59;;;;;;;14.65;6.40;;;4.40;99.90;;;;;;5068489;28;20051;-71
2023/11/12 00:47:26;;;;;;;11.70;6.07;;;4.40;99.90;;;;;;5068215;28;20044;-71
2023/11/12 00:49:53;;;;;;;13.93;6.20;;;4.40;99.90;;;;;;5068427;28;20052;-71
2023/11/12 00:52:19;;;;;;;13.43;6.20;;;4.40;99.90;;;;;;5068308;28;20622;-72
2023/11/12 00:54:47;;;;;;;15.63;5.97;;;4.40;99.90;;;;;;5068436;28;20139;-71
2023/11/12 00:57:14;;;;;;;18.92;7.00;;;4.50;99.90;;;;;;5067627;28;20656;-71
2023/11/12 00:59:41;;;;;;;13.63;6.07;;;4.50;99.90;;;;;;5068256;28;20083;-71
2023/11/12 01:02:10;;;;;;;13.30;5.70;;;4.50;99.90;;;;;;5067585;28;20076;-71
2023/11/12 01:04:37;;;;;;;17.60;5.63;;;4.50;99.90;;;;;;5056874;28;20122;-71
2023/11/12 01:07:04;;;;;;;9.02;5.40;;;4.50;99.90;;;;;;5049826;28;20056;-71
2023/11/12 01:09:31;;;;;;;9.88;5.15;;;4.50;99.90;;;;;;5068277;28;20048;-72
2023/11/12 01:11:58;;;;;;;7.65;4.47;;;4.60;99.90;;;;;;5068298;28;20105;-71
2023/11/12 01:14:24;;;;;;;9.07;5.45;;;4.50;99.90;;;;;;5067588;28;20095;-71
2023/11/12 01:16:51;;;;;;;11.75;5.00;;;4.50;99.90;;;;;;5067714;28;20047;-71
2023/11/12 01:19:19;;;;;;;16.20;5.90;;;4.60;99.90;;;;;;5067593;28;20106;-69
2023/11/12 01:21:46;;;;;;;12.77;5.32;;;4.60;99.90;;;;;;5067525;28;20080;-71
2023/11/12 01:24:13;;;;;;;12.02;5.28;;;4.60;99.90;;;;;;5066748;28;20107;-72
2023/11/12 01:26:43;;;;;;;8.88;4.95;;;4.70;99.90;;;;;;5064997;28;20140;-72
2023/11/12 01:29:10;;;;;;;13.20;4.68;;;4.70;99.90;;;;;;5063779;28;20589;-70
2023/11/12 01:31:37;;;;;;;12.00;5.40;;;4.70;99.90;;;;;;5067803;28;20048;-69
2023/11/12 01:34:07;;;;;;;8.93;4.95;;;4.70;99.90;;;;;;5066739;28;20044;-70
2023/11/12 01:36:34;;;;;;;12.23;5.70;;;4.70;99.90;;;;;;5067046;28;20801;-70
2023/11/12 01:39:02;;;;;;;15.73;5.88;;;4.70;99.90;;;;;;5067385;28;20503;-70
2023/11/12 01:41:29;;;;;;;9.00;4.72;;;4.80;99.90;;;;;;5067652;28;20048;-70
2023/11/12 01:43:56;;;;;;;7.80;4.60;;;4.80;99.90;;;;;;5066704;28;20117;-70
2023/11/12 01:46:23;;;;;;;8.23;4.38;;;4.90;99.90;;;;;;5067181;28;20127;-71
2023/11/12 01:48:50;;;;;;;17.10;6.30;;;4.90;99.90;;;;;;5048978;28;20048;-70
2023/11/12 01:51:17;;;;;;;8.63;4.18;;;4.90;99.90;;;;;;5067376;28;20567;-70
2023/11/12 01:53:45;;;;;;;10.88;4.85;;;5.00;99.90;;;;;;5067416;28;20072;-70
2023/11/12 01:56:11;;;;;;;8.45;5.10;;;5.00;99.90;;;;;;5064209;28;20495;-70
2023/11/12 01:58:39;;;;;;;7.97;4.45;;;5.00;99.90;;;;;;5064964;28;20064;-70
2023/11/12 02:01:06;;;;;;;13.00;4.93;;;5.10;99.90;;;;;;5067639;28;20049;-70
2023/11/12 02:03:32;;;;;;;10.93;4.05;;;5.20;99.90;;;;;;5066754;28;20045;-70
2023/11/12 02:05:59;;;;;;;10.05;3.88;;;5.20;99.90;;;;;;5046287;28;20293;-71
2023/11/12 02:08:26;;;;;;;8.93;4.30;;;5.20;99.90;;;;;;5043787;28;20483;-70
2023/11/12 02:10:53;;;;;;;10.75;4.22;;;5.20;99.90;;;;;;4717299;28;10000312;-71
2023/11/12 02:13:21;;;;;;;9.93;3.13;;;5.20;99.90;;;;;;5047585;28;20041;-71
2023/11/12 02:15:49;;;;;;;6.65;4.13;;;5.20;99.90;;;;;;5055982;28;20115;-70
2023/11/12 02:18:16;;;;;;;10.02;4.55;;;5.20;99.90;;;;;;5066366;28;20043;-70
2023/11/12 02:20:46;;;;;;;10.38;5.38;;;5.30;99.90;;;;;;5067653;28;20117;-71
2023/11/12 02:23:15;;;;;;;13.10;3.85;;;5.30;99.90;;;;;;5067175;28;20098;-70
2023/11/12 02:25:43;;;;;;;11.15;5.10;;;5.30;99.90;;;;;;5049230;28;20235;-70
2023/11/12 02:28:14;;;;;;;9.32;4.55;;;5.30;99.90;;;;;;5067060;28;20044;-69
2023/11/12 02:30:41;;;;;;;10.32;3.70;;;5.30;99.90;;;;;;5064214;28;20044;-69
2023/11/12 02:33:09;;;;;;;6.68;3.28;;;5.40;99.90;;;;;;5067126;28;20090;-72
2023/11/12 02:35:42;;;;;;;8.45;3.47;;;5.40;99.90;;;;;;5066813;28;20044;-72
2023/11/12 02:38:12;;;;;;;6.97;3.13;;;5.40;99.90;;;;;;5054366;28;20061;-71
2023/11/12 02:40:39;;;;;;;7.40;2.80;;;5.50;99.90;;;;;;5066316;28;20113;-72
2023/11/12 02:43:06;;;;;;;10.07;3.70;;;5.40;99.90;;;;;;5066856;28;20052;-72
2023/11/12 02:45:33;;;;;;;9.15;3.15;;;5.50;99.90;;;;;;5048828;28;20049;-71
2023/11/12 02:48:00;;;;;;;7.70;3.47;;;5.60;99.90;;;;;;5067050;28;20147;-72
2023/11/12 02:50:31;;;;;;;7.18;3.20;;;5.60;99.90;;;;;;5066872;28;20562;-72
2023/11/12 02:53:03;;;;;;;5.85;3.33;;;5.60;99.90;;;;;;5049390;28;20063;-71
2023/11/12 02:55:30;;;;;;;10.60;3.15;;;5.60;99.90;;;;;;5066783;28;20416;-68
2023/11/12 02:57:57;;;;;;;9.30;3.92;;;5.60;99.90;;;;;;5066343;28;20538;-71
2023/11/12 03:00:27;;;;;;;12.40;4.30;;;5.70;99.90;;;;;;5066371;28;20548;-71
2023/11/12 03:02:58;;;;;;;9.50;3.88;;;5.70;99.90;;;;;;5066679;28;20045;-71
2023/11/12 03:05:28;;;;;;;11.20;3.60;;;5.60;99.90;;;;;;5049007;28;20056;-71
2023/11/12 03:07:57;;;;;;;9.30;3.75;;;5.60;99.90;;;;;;5066409;28;20083;-70
2023/11/12 03:10:25;;;;;;;8.40;4.10;;;5.70;99.90;;;;;;5049054;28;20040;-70
2023/11/12 03:12:52;;;;;;;11.40;4.40;;;5.60;99.90;;;;;;5066406;28;20048;-70
2023/11/12 03:15:19;;;;;;;8.23;3.53;;;5.60;99.90;;;;;;5066575;28;20049;-70
2023/11/12 03:17:45;;;;;;;13.05;5.25;;;5.60;99.90;;;;;;5066334;28;20063;-71
2023/11/12 03:20:14;;;;;;;8.32;3.90;;;5.60;99.90;;;;;;5066420;28;20041;-70
2023/11/12 03:22:40;;;;;;;8.60;3.50;;;5.60;99.90;;;;;;5066585;28;20503;-69
2023/11/12 03:25:09;;;;;;;7.00;3.70;;;5.60;99.90;;;;;;5066067;28;20044;-70
2023/11/12 03:27:37;;;;;;;8.45;3.80;;;5.60;99.90;;;;;;5062799;28;20052;-70
2023/11/12 03:30:04;;;;;;;9.77;4.13;;;5.60;99.90;;;;;;5070193;28;20048;-70
2023/11/12 03:32:31;;;;;;;10.48;4.93;;;5.60;99.90;;;;;;5068663;28;20103;-69
2023/11/12 03:35:00;;;;;;;8.25;4.28;;;5.60;99.90;;;;;;5069464;28;20110;-70
2023/11/12 03:37:27;;;;;;;12.07;5.13;;;5.60;99.90;;;;;;5069603;28;20048;-70
2023/11/12 03:39:54;;;;;;;11.05;4.43;;;5.60;99.90;;;;;;5069868;28;20535;-70
2023/11/12 03:42:21;;;;;;;11.43;5.15;;;5.70;99.90;;;;;;5069163;28;20049;-70
2023/11/12 03:44:51;;;;;;;10.07;4.28;;;5.70;99.90;;;;;;5069967;28;20044;-70
2023/11/12 03:47:18;;;;;;;9.00;4.40;;;5.60;99.90;;;;;;5069659;28;20377;-70
2023/11/12 03:49:45;;;;;;;12.68;4.63;;;5.60;99.90;;;;;;5067405;28;20048;-71
2023/11/12 03:52:12;;;;;;;11.70;4.57;;;5.60;99.90;;;;;;5069374;28;20052;-71
2023/11/12 03:54:39;;;;;;;10.77;4.70;;;5.60;99.90;;;;;;5069650;28;20045;-70
2023/11/12 03:57:06;;;;;;;8.30;4.60;;;5.60;99.90;;;;;;5069992;28;20049;-69
2023/11/12 03:59:32;;;;;;;11.38;4.30;;;5.70;99.90;;;;;;5068909;28;20049;-71
2023/11/12 04:01:59;;;;;;;9.48;4.00;;;5.70;99.90;;;;;;5052060;28;20037;-71
2023/11/12 04:04:26;;;;;;;11.88;4.07;;;5.70;99.90;;;;;;5062697;28;20049;-70
2023/11/12 04:06:53;;;;;;;6.85;4.35;;;5.70;99.90;;;;;;5059925;28;20048;-69
2023/11/12 04:09:20;;;;;;;6.88;3.65;;;5.70;99.90;;;;;;5063184;28;20040;-69
2023/11/12 04:11:47;;;;;;;7.32;3.25;;;5.80;99.90;;;;;;5069751;28;20052;-69
2023/11/12 04:14:13;;;;;;;8.40;4.22;;;5.80;99.90;;;;;;5069186;28;20055;-69
2023/11/12 04:16:40;;;;;;;11.02;3.95;;;5.90;99.90;;;;;;5069702;28;20045;-68
2023/11/12 04:19:07;;;;;;;9.05;3.47;;;5.90;99.90;;;;;;5068594;28;20048;-72
2023/11/12 04:21:35;;;;;;;10.15;3.70;;;6.00;99.90;;;;;;5069961;28;20114;-69
2023/11/12 04:24:02;;;;;;;6.07;3.33;;;6.00;99.90;;;;;;5068914;28;20495;-72
2023/11/12 04:26:31;;;;;;;7.47;3.42;;;6.10;99.90;;;;;;5051985;28;20496;-71
2023/11/12 04:28:58;;;;;;;7.32;3.58;;;6.10;99.90;;;;;;5068859;28;20048;-71
2023/11/12 04:31:25;;;;;;;6.53;3.17;;;6.10;99.90;;;;;;5068896;28;20063;-71
2023/11/12 04:33:53;;;;;;;8.30;3.38;;;6.20;99.90;;;;;;5068606;28;20049;-70
2023/11/12 04:36:20;;;;;;;13.75;3.78;;;6.10;99.90;;;;;;5062915;28;20057;-70
2023/11/12 04:38:47;;;;;;;7.40;3.78;;;6.10;99.90;;;;;;5059930;28;20411;-68
2023/11/12 04:41:14;;;;;;;10.70;3.60;;;6.10;99.90;;;;;;5069266;28;20044;-69
2023/11/12 04:43:41;;;;;;;7.35;4.57;;;6.10;99.90;;;;;;5068862;28;20502;-68
2023/11/12 04:46:08;;;;;;;7.70;3.72;;;6.20;99.90;;;;;;5068690;28;20060;-69
2023/11/12 04:48:34;;;;;;;9.18;4.07;;;6.20;99.90;;;;;;5068894;28;20053;-69
2023/11/12 04:51:02;;;;;;;10.48;4.35;;;6.30;99.90;;;;;;5068873;28;20048;-69
2023/11/12 04:53:29;;;;;;;8.68;3.30;;;6.30;99.90;;;;;;5068711;28;20821;-69
2023/11/12 04:55:56;;;;;;;4.50;2.70;;;6.20;99.90;;;;;;5063287;28;20045;-68
2023/11/12 04:58:23;;;;;;;8.68;3.33;;;6.30;99.90;;;;;;5068888;28;20048;-69
2023/11/12 05:00:51;;;;;;;8.27;3.03;;;6.30;99.90;;;;;;5068738;28;20118;-69
2023/11/12 05:03:20;;;;;;;9.48;3.45;;;6.30;99.90;;;;;;5068992;28;20045;-69
2023/11/12 05:05:47;;;;;;;8.63;3.53;;;6.30;99.90;;;;;;5059352;28;20040;-69
2023/11/12 05:08:14;;;;;;;5.90;2.95;;;6.30;99.90;;;;;;5065762;28;20049;-68
2023/11/12 05:10:40;;;;;;;7.10;2.90;;;6.30;99.90;;;;;;5068707;28;20098;-68
2023/11/12 05:13:12;;;;;;;8.40;3.60;;;6.40;99.90;;;;;;5069134;28;20078;-68
2023/11/12 05:15:41;;;;;;;6.47;3.53;;;6.40;99.90;;;;;;5067717;28;20487;-68
2023/11/12 05:18:08;;;;;;;7.35;3.47;;;6.40;99.90;;;;;;5067794;28;20097;-68
2023/11/12 05:20:35;;;;;;;10.82;3.30;;;6.40;99.90;;;;;;5050487;28;20056;-68
2023/11/12 05:23:02;;;;;;;8.27;3.25;;;6.40;99.90;;;;;;5067973;28;20145;-67
2023/11/12 05:25:28;;;;;;;9.45;4.30;;;6.50;99.90;;;;;;5067742;28;20306;-70
2023/11/12 05:27:55;;;;;;;7.35;3.25;;;6.50;99.90;;;;;;5068298;28;20077;-69
2023/11/12 05:30:23;;;;;;;8.20;3.97;;;6.40;99.90;;;;;;5061964;28;20099;-69
2023/11/12 05:32:50;;;;;;;9.15;2.92;;;6.40;99.90;;;;;;5064728;28;20477;-69
2023/11/12 05:35:18;;;;;;;7.00;2.95;;;6.50;99.90;;;;;;5040090;28;20044;-70
2023/11/12 05:37:47;;;;;;;9.35;3.10;;;6.50;99.90;;;;;;5067756;28;20503;-68
2023/11/12 05:40:14;;;;;;;7.55;3.55;;;6.50;99.90;;;;;;5033445;28;20045;-70
2023/11/12 05:42:41;;;;;;;7.53;3.90;;;6.50;99.90;;;;;;5067468;28;20049;-70
2023/11/12 05:45:09;;;;;;;8.73;3.42;;;6.50;99.90;;;;;;5067893;28;20465;-68
2023/11/12 05:47:35;;;;;;;10.10;3.88;;;6.50;99.90;;;;;;5067580;28;20070;-68
2023/11/12 05:50:03;;;;;;;6.22;3.53;;;6.50;99.90;;;;;;5067321;28;20127;-69
2023/11/12 05:52:29;;;;;;;8.40;3.30;;;6.50;99.90;;;;;;5044492;28;20131;-68
2023/11/12 05:54:56;;;;;;;9.50;3.50;;;6.50;99.90;;;;;;5067447;28;20491;-71
2023/11/12 05:57:23;;;;;;;7.75;3.25;;;6.50;99.90;;;;;;5067385;28;20040;-70
2023/11/12 05:59:50;;;;;;;7.85;3.30;;;6.50;99.90;;;;;;5067437;28;20048;-70
2023/11/12 06:02:17;;;;;;;12.10;3.55;;;6.50;99.90;;;;;;5067030;28;20506;-70
2023/11/12 06:04:43;;;;;;;7.82;3.20;;;6.60;99.90;;;;;;5067892;28;20048;-70
2023/11/12 06:07:10;;;;;;;9.57;3.40;;;6.50;99.90;;;;;;5067419;28;20052;-70
2023/11/12 06:09:37;;;;;;;7.47;3.33;;;6.60;99.90;;;;;;5067537;28;20052;-71
2023/11/12 06:12:05;;;;;;;5.38;3.00;;;6.60;99.90;;;;;;5067216;28;20063;-70
2023/11/12 06:14:33;;;;;;;11.77;4.25;;;6.50;99.90;;;;;;5049739;28;20125;-69
2023/11/12 06:16:59;;;;;;;11.40;4.15;;;6.50;99.90;;;;;;5049478;28;20055;-69
2023/11/12 06:19:27;;;;;;;7.25;3.78;;;6.60;99.90;;;;;;5067203;28;20044;-71
2023/11/12 06:21:55;;;;;;;8.88;3.85;;;6.60;99.90;;;;;;5063015;28;20048;-69
2023/11/12 06:24:23;;;;;;;7.10;3.40;;;6.60;99.90;;;;;;5065824;28;20058;-69
2023/11/12 06:26:49;;;;;;;9.90;3.60;;;6.60;99.90;;;;;;5067012;28;20090;-70
2023/11/12 06:29:16;;;;;;;8.73;3.20;;;6.60;99.90;;;;;;5067324;28;20148;-69
2023/11/12 06:31:43;;;;;;;5.93;3.08;;;6.60;99.90;;;;;;5067220;28;20045;-69
2023/11/12 06:34:10;;;;;;;8.20;3.50;;;6.60;99.90;;;;;;5061006;28;20052;-70
2023/11/12 06:36:37;;;;;;;7.80;3.50;;;6.60;99.90;;;;;;5066810;28;20045;-67
2023/11/12 06:39:05;;;;;;;5.90;3.33;;;6.60;99.90;;;;;;5067110;28;20036;-70
2023/11/12 06:41:32;;;;;;;7.38;3.22;;;6.60;99.90;;;;;;5067239;28;20474;-69
2023/11/12 06:43:59;;;;;;;6.28;3.10;;;6.70;99.90;;;;;;5066687;28;20049;-69
2023/11/12 06:46:26;;;;;;;8.85;3.47;;;6.70;99.90;;;;;;5066947;28;20483;-70
2023/11/12 06:48:53;;;;;;;7.15;3.25;;;6.70;99.90;;;;;;5066890;28;20083;-70
2023/11/12 06:51:21;;;;;;;8.52;3.30;;;6.70;99.90;;;;;;5048887;28;20128;-69
2023/11/12 06:53:48;;;;;;;7.82;3.42;;;6.70;99.90;;;;;;5066770;28;20407;-69
2023/11/12 06:56:15;;;;;;;10.07;3.20;;;6.70;99.90;;;;;;5067193;28;20091;-69
2023/11/12 06:58:42;;;;;;;7.97;3.20;;;6.60;99.90;;;;;;5048464;28;20110;-70
2023/11/12 07:01:08;;;;;;;5.72;3.05;;;6.70;99.90;;;;;;5049344;28;20457;-70
2023/11/12 07:03:35;;;;;;;7.57;3.28;;;6.70;99.90;;;;;;5070460;28;20084;-70
2023/11/12 07:06:06;;;;;;;7.32;3.58;;;6.70;99.90;;;;;;5071093;28;20051;-69
2023/11/12 07:08:33;;;;;;;6.50;3.72;;;6.70;99.90;;;;;;5070838;28;20496;-69
2023/11/12 07:11:00;;;;;;;8.55;3.40;;;6.70;99.90;;;;;;5070319;28;20098;-69
2023/11/12 07:13:27;;;;;;;7.63;3.13;;;6.70;99.90;;;;;;5070220;28;20054;-69
2023/11/12 07:15:55;;;;;;;8.75;3.45;;;6.80;99.90;;;;;;5070503;28;20570;-69
2023/11/12 07:18:23;;;;;;;6.13;2.95;;;6.80;99.90;;;;;;5056416;28;20094;-70
2023/11/12 07:20:50;;;;;;;9.50;3.67;;;6.80;99.90;;;;;;5052490;28;20080;-69
2023/11/12 07:23:17;;;;;;;5.00;3.00;;;6.80;99.90;;;;;;5070107;28;20105;-70
2023/11/12 07:25:44;;;;;;;6.90;3.47;;;6.80;99.90;;;;;;5070616;28;20132;-70
2023/11/12 07:28:11;;;;;;;9.73;3.88;;;6.80;99.90;;;;;;5070271;28;20083;-70
2023/11/12 07:30:38;;;;;;;6.00;3.40;;;6.80;99.90;;;;;;5070054;28;20053;-70
2023/11/12 07:33:06;;;;;;;11.52;4.03;;;6.80;99.90;;;;;;5069695;28;20114;-69
2023/11/12 07:35:33;;;;;;;10.20;3.45;;;6.90;99.90;;;;;;5070359;28;20136;-68
2023/11/12 07:38:00;;;;;;;7.18;3.53;;;6.90;99.90;;;;;;5058977;28;20486;-69
2023/11/12 07:40:27;;;;;;;8.30;4.00;;;6.90;99.90;;;;;;5067829;28;20048;-68
2023/11/12 07:42:55;;;;;;;5.60;3.65;;;6.90;99.90;;;;;;5069857;28;20048;-69
2023/11/12 07:45:22;;;;;;;8.23;3.95;;;6.90;99.90;;;;;;5069474;28;20078;-69
2023/11/12 07:48:00;;;;;;;5.95;3.47;;;6.90;99.90;;;;;;5059197;28;20124;-69
2023/11/12 07:50:28;;;;;;;6.35;3.80;;;6.90;99.90;;;;;;5068655;28;20036;-69
2023/11/12 07:52:55;;;;;;;7.88;3.58;;;6.90;99.90;;;;;;5069657;28;20084;-70
2023/11/12 07:55:25;;;;;;;13.07;4.15;;;6.90;99.90;;;;;;5069269;28;20098;-69
2023/11/12 07:57:51;;;;;;;7.07;3.88;;;6.90;99.90;;;;;;5069416;28;20045;-69
2023/11/12 08:00:19;;;;;;;7.75;3.47;;;7.00;99.90;;;;;;5068817;28;20040;-70
2023/11/12 08:02:47;;;;;;;9.45;4.32;;;7.00;99.90;;;;;;5069036;28;20056;-71
2023/11/12 08:05:14;;;;;;;10.00;4.60;;;7.00;99.90;;;;;;5069617;28;20389;-70
2023/11/12 08:07:47;;;;;;;7.55;3.47;;;7.00;99.90;;;;;;4919622;28;10000535;-70
2023/11/12 08:10:14;;;;;;;12.68;4.90;;;7.10;99.90;;;;;;5061414;28;20248;-71
2023/11/12 08:12:44;;;;;;;11.23;4.72;;;7.10;99.90;;;;;;5061309;28;20125;-69
2023/11/12 08:15:12;;;;;;;7.35;4.55;;;7.10;99.90;;;;;;5064191;28;20059;-70
2023/11/12 08:17:39;;;;;;;6.95;3.80;;;7.10;99.90;;;;;;5066286;28;20048;-70
2023/11/12 08:20:07;;;;;;;8.85;3.85;;;7.20;99.90;;;;;;5065597;28;20041;-69
2023/11/12 08:22:33;;;;;;;7.25;4.05;;;7.20;99.90;;;;;;5045591;28;20059;-70
2023/11/12 08:25:00;;;;;;;8.15;4.28;;;7.30;99.90;;;;;;5066282;28;20132;-70
2023/11/12 08:27:27;;;;;;;7.95;3.47;;;7.30;99.90;;;;;;5060445;28;20049;-70
2023/11/12 08:29:54;;;;;;;11.02;4.18;;;7.30;99.90;;;;;;5065664;28;20048;-70
2023/11/12 08:32:21;;;;;;;12.27;4.72;;;7.40;99.90;;;;;;5056272;28;20641;-70
2023/11/12 08:34:47;;;;;;;7.85;4.40;;;7.40;99.90;;;;;;5066648;28;20052;-68
2023/11/12 08:37:14;;;;;;;12.45;5.18;;;7.40;99.90;;;;;;5066908;28;20435;-67
2023/11/12 08:39:41;;;;;;;9.32;4.57;;;7.50;99.90;;;;;;5065552;28;20190;-67
2023/11/12 08:42:08;;;;;;;8.95;4.13;;;7.50;99.90;;;;;;5066406;28;20060;-67
2023/11/12 08:44:35;;;;;;;9.88;4.50;;;7.60;99.90;;;;;;5053086;28;20092;-67
2023/11/12 08:47:03;;;;;;;6.80;3.53;;;7.60;99.90;;;;;;5056131;28;20450;-69
2023/11/12 08:49:32;;;;;;;8.50;3.97;;;7.70;99.90;;;;;;5063228;28;20544;-70
2023/11/12 08:51:59;;;;;;;8.77;3.47;;;7.70;99.90;;;;;;5047998;28;20152;-68
2023/11/12 08:54:29;;;;;;;9.95;4.00;;;7.70;99.90;;;;;;5065007;28;20044;-70
2023/11/12 08:56:59;;;;;;;8.68;3.85;;;7.70;99.90;;;;;;5062344;28;20102;-68
2023/11/12 08:59:29;;;;;;;8.38;3.05;;;7.80;99.90;;;;;;5065078;28;20095;-66
2023/11/12 09:01:56;;;;;;;9.85;3.30;;;7.80;99.90;;;;;;5055698;28;20098;-67
2023/11/12 09:04:23;;;;;;;9.27;3.80;;;7.80;99.90;;;;;;5065771;28;20056;-67
2023/11/12 09:06:50;;;;;;;6.97;3.45;;;7.90;99.90;;;;;;5041350;28;20052;-67
2023/11/12 09:09:17;;;;;;;16.08;4.80;;;7.90;99.90;;;;;;5066934;28;20049;-68
2023/11/12 09:11:44;;;;;;;9.38;4.57;;;7.90;99.90;;;;;;5066821;28;20053;-66
2023/11/12 09:14:14;;;;;;;11.65;4.00;;;7.90;99.90;;;;;;5066678;28;20097;-67
2023/11/12 09:16:44;;;;;;;7.40;3.53;;;8.00;99.90;;;;;;5065891;28;20052;-68
2023/11/12 09:19:11;;;;;;;13.25;3.45;;;8.00;99.90;;;;;;5063688;28;20040;-68
2023/11/12 09:21:38;;;;;;;10.15;3.03;;;8.00;99.90;;;;;;5067481;28;20052;-68
2023/11/12 09:24:05;;;;;;;11.93;4.03;;;8.00;99.90;;;;;;5061234;28;20098;-69
2023/11/12 09:26:32;;;;;;;9.27;4.07;;;8.10;99.90;;;;;;5061285;28;20044;-69
2023/11/12 09:28:58;;;;;;;6.35;2.78;;;8.10;99.90;;;;;;5064272;28;20113;-69
2023/11/12 09:31:26;;;;;;;9.82;3.58;;;8.10;99.90;;;;;;5060650;28;20105;-69
2023/11/12 09:33:53;;;;;;;9.55;3.15;;;8.10;99.90;;;;;;5062407;28;20479;-69
2023/11/12 09:36:20;;;;;;;6.30;3.13;;;8.20;99.90;;;;;;5067523;28;20047;-69
2023/11/12 09:38:47;;;;;;;6.57;3.80;;;8.20;99.90;;;;;;5067447;28;20105;-68
2023/11/12 09:41:13;;;;;;;7.38;2.90;;;8.20;99.90;;;;;;5050288;28;20086;-68
2023/11/12 09:43:40;;;;;;;11.38;4.15;;;8.30;99.90;;;;;;5050014;28;20469;-69
2023/11/12 09:46:07;;;;;;;8.90;3.40;;;8.30;99.90;;;;;;5064814;28;20044;-69
2023/11/12 09:48:39;;;;;;;13.70;3.28;;;8.30;99.90;;;;;;5067609;28;20048;-69
2023/11/12 09:51:07;;;;;;;10.05;3.03;;;8.30;99.90;;;;;;5068304;28;20102;-69
2023/11/12 09:53:39;;;;;;;7.75;3.97;;;8.30;99.90;;;;;;5070102;28;20140;-68
2023/11/12 09:56:09;;;;;;;13.70;3.10;;;8.40;99.90;;;;;;5067094;28;20518;-68
2023/11/12 09:58:45;;;;;;;9.57;3.30;;;8.40;99.90;;;;;;5067570;28;20056;-68
2023/11/12 10:01:13;;;;;;;15.73;3.60;;;8.30;99.90;;;;;;5067182;28;20053;-68
2023/11/12 10:03:50;;;;;;;9.45;2.78;;;8.40;99.90;;;;;;5067654;28;20117;-68
2023/11/12 10:06:20;;;;;;;7.50;3.00;;;8.40;99.90;;;;;;5062354;28;20040;-68
2023/11/12 10:08:49;;;;;;;8.68;2.85;;;8.40;99.90;;;;;;5068680;28;20044;-68
2023/11/12 10:11:17;;;;;;;6.85;2.35;;;8.50;99.90;;;;;;5067886;28;20044;-68
2023/11/12 10:13:47;;;;;;;8.50;3.58;;;8.50;99.90;;;;;;5049583;28;20044;-67
2023/11/12 10:16:23;;;;;;;9.35;3.33;;;8.50;99.90;;;;;;5061258;28;20041;-68
2023/11/12 10:18:51;;;;;;;5.07;2.92;;;8.50;99.90;;;;;;5067313;28;20049;-68
2023/11/12 10:21:21;;;;;;;11.63;3.45;;;8.60;99.90;;;;;;5067247;28;20037;-68
2023/11/12 10:24:03;;;;;;;8.07;2.75;;;8.70;99.90;;;;;;5077933;28;20048;-68
2023/11/12 10:26:33;;;;;;;7.22;2.97;;;8.70;99.90;;;;;;5047036;28;20117;-69
2023/11/12 10:29:00;;;;;;;12.15;2.85;;;8.80;99.90;;;;;;5067303;28;20809;-70
2023/11/12 10:31:40;;;;;;;11.00;4.03;;;8.80;99.90;;;;;;5067150;28;20281;-68
2023/11/12 10:34:07;;;;;;;7.22;3.10;;;8.80;99.90;;;;;;5066849;28;20135;-67
2023/11/12 10:36:34;;;;;;;7.43;2.78;;;8.80;99.90;;;;;;5063393;28;20049;-69
2023/11/12 10:39:06;;;;;;;9.57;3.20;;;8.90;99.90;;;;;;5060873;28;20055;-68
2023/11/12 10:41:36;;;;;;;6.47;3.80;;;8.90;99.90;;;;;;5048510;28;20055;-68
2023/11/12 10:44:03;;;;;;;8.68;4.38;;;8.90;99.90;;;;;;5057550;28;20463;-68
2023/11/12 10:46:30;;;;;;;6.15;3.72;;;9.00;99.90;;;;;;5068340;28;20044;-69
2023/11/12 10:48:57;;;;;;;6.50;2.95;;;9.00;99.90;;;;;;5030144;28;20518;-68
2023/11/12 10:51:25;;;;;;;9.25;3.78;;;9.00;99.90;;;;;;4695336;28;9999978;-68
2023/11/12 10:53:54;;;;;;;11.18;4.45;;;9.00;99.90;;;;;;5049328;28;20136;-69
2023/11/12 10:56:21;;;;;;;8.10;3.40;;;9.10;99.90;;;;;;5030341;28;20495;-68
2023/11/12 10:58:50;;;;;;;13.10;3.72;;;9.10;99.90;;;;;;5045179;28;20041;-68
2023/11/12 11:01:16;;;;;;;17.00;3.38;;;9.10;99.90;;;;;;5048705;28;20040;-69
2023/11/12 11:03:43;;;;;;;5.38;2.85;;;9.10;99.90;;;;;;5032314;28;20131;-68
2023/11/12 11:06:10;;;;;;;16.15;3.47;;;9.20;99.90;;;;;;5047296;28;20045;-68
2023/11/12 11:08:37;;;;;;;11.35;3.40;;;9.30;99.90;;;;;;5049053;28;20052;-68
2023/11/12 11:11:04;;;;;;;8.13;2.70;;;9.40;99.90;;;;;;5053166;28;20516;-68
2023/11/12 11:13:36;;;;;;;5.88;3.05;;;9.50;99.90;;;;;;5049569;28;20098;-68
2023/11/12 11:16:03;;;;;;;11.88;3.58;;;9.60;99.90;;;;;;5032186;28;20095;-67
2023/11/12 11:18:36;;;;;;;17.05;4.18;;;9.70;99.90;;;;;;5066595;28;20131;-68
2023/11/12 11:21:03;;;;;;;5.30;2.67;;;9.70;99.90;;;;;;5066903;28;20049;-68
2023/11/12 11:23:40;;;;;;;7.82;3.35;;;9.70;99.90;;;;;;5062763;28;20123;-68
2023/11/12 11:26:29;;;;;;;6.43;2.97;;;9.80;99.90;;;;;;5044721;28;20114;-67
2023/11/12 11:29:05;;;;;;;10.73;3.63;;;9.80;99.90;;;;;;5059300;28;20057;-68
2023/11/12 11:31:40;;;;;;;10.85;3.67;;;10.00;99.90;;;;;;5077860;28;20086;-69
2023/11/12 11:34:07;;;;;;;7.25;3.13;;;10.00;99.90;;;;;;5066005;28;20044;-69
2023/11/12 11:36:34;;;;;;;7.20;2.53;;;10.10;99.90;;;;;;5046431;28;20076;-67
2023/11/12 11:39:13;;;;;;;7.25;3.03;;;10.10;99.90;;;;;;5066667;28;20045;-69
2023/11/12 11:41:45;;;;;;;7.53;3.30;;;10.10;99.90;;;;;;5066562;28;20048;-69
2023/11/12 11:44:31;;;;;;;9.38;2.90;;;10.10;99.90;;;;;;5062140;28;20473;-69
2023/11/12 11:47:14;;;;;;;7.40;4.47;;;10.20;99.90;;;;;;5046247;28;20053;-69
2023/11/12 11:49:46;;;;;;;11.07;3.33;;;10.20;99.90;;;;;;5048848;28;20056;-68
2023/11/12 11:52:17;;;;;;;10.43;3.83;;;10.20;99.90;;;;;;5071306;28;20537;-70
2023/11/12 11:54:44;;;;;;;9.00;3.40;;;10.20;99.90;;;;;;5063074;28;20482;-69
2023/11/12 11:57:13;;;;;;;9.48;4.07;;;10.20;99.90;;;;;;5067669;28;20048;-70
2023/11/12 11:59:40;;;;;;;12.18;3.03;;;10.10;99.90;;;;;;5052058;28;20052;-69
2023/11/12 12:02:15;;;;;;;7.72;4.50;;;10.10;99.90;;;;;;5052492;28;20099;-69
2023/11/12 12:04:47;;;;;;;8.38;3.78;;;10.20;99.90;;;;;;5070017;28;20044;-69
2023/11/12 12:07:22;;;;;;;6.63;3.17;;;10.20;99.90;;;;;;5070872;28;20131;-69
2023/11/12 12:09:49;;;;;;;10.75;3.38;;;10.20;99.90;;;;;;5069844;28;20036;-67
2023/11/12 12:12:16;;;;;;;10.10;3.08;;;10.30;99.90;;;;;;5070641;28;20052;-69
2023/11/12 12:14:43;;;;;;;5.78;2.97;;;10.20;99.90;;;;;;5069451;28;20056;-69
2023/11/12 12:17:09;;;;;;;6.47;3.28;;;10.30;99.90;;;;;;5063621;28;20545;-69
2023/11/12 12:19:36;;;;;;;9.77;3.80;;;10.30;99.90;;;;;;5066130;28;20051;-69
2023/11/12 12:22:04;;;;;;;5.68;3.17;;;10.20;99.90;;;;;;5068345;28;20055;-69
2023/11/12 12:24:34;;;;;;;5.38;2.05;;;10.30;99.90;;;;;;5067849;28;20044;-71
2023/11/12 12:27:06;;;;;;;4.65;1.70;;;10.30;99.90;;;;;;5035977;28;20166;-70
2023/11/12 12:29:34;;;;;;;4.68;1.88;;;10.20;99.90;;;;;;5070464;28;20044;-69
2023/11/12 12:32:12;;;;;;;3.20;1.60;;;10.30;99.90;;;;;;5048376;28;20094;-69
2023/11/12 12:34:41;;;;;;;2.88;1.58;;;10.30;99.90;;;;;;5068962;28;20078;-69
2023/11/12 12:37:09;;;;;;;4.60;1.80;;;10.40;99.90;;;;;;5045317;28;20101;-69
2023/11/12 12:39:50;;;;;;;4.03;1.30;;;10.40;99.90;;;;;;5065853;28;20442;-68
2023/11/12 12:42:20;;;;;;;3.83;1.50;;;10.40;99.90;;;;;;5069112;28;20048;-68
2023/11/12 12:44:50;;;;;;;6.13;2.22;;;10.40;99.90;;;;;;5071149;28;20052;-69
2023/11/12 12:47:35;;;;;;;4.13;1.58;;;10.40;99.90;;;;;;5068970;28;20545;-70
2023/11/12 12:50:25;;;;;;;4.35;1.95;;;10.30;99.90;;;;;;5069463;28;20048;-69
2023/11/12 12:52:57;;;;;;;11.18;1.95;;;10.40;99.90;;;;;;5049156;28;20044;-69
2023/11/12 12:55:24;;;;;;;5.60;2.13;;;10.40;99.90;;;;;;5044469;28;20044;-68
2023/11/12 12:57:51;;;;;;;3.00;1.25;;;10.40;99.90;;;;;;5057537;28;20040;-67